IBC6585 LEMD-SKBO
Flight info
| Callsign | IBC6585 |
|---|---|
| Flight time | N/A |
| Altitude | 30000 |
| Route | BARDI DCT VIS DCT DIRMA/N0478F310 DCT GUNTI/M080F300 DCT 37N020W 32N030W/M080F320 27N040W 23N050W/M080F340 20N055W DCT CITRS/N0472F340 UP533 PBL DCT KIKAS DCT DOPLO DOPLO5E |
| Aircraft | A346/H-SDE2E3FGHIJ3J4J5M1RWXY/LB1D1 |
Departure
| Time | 2026-05-08 01:34 |
|---|---|
| Airport | Adolfo Suárez Madrid–Barajas Airport (LEMD) |
Arrival
| Time | N/A |
|---|---|
| Airport | El Dorado International Airport (SKBO) |
| Time | Latitude | Longitude | Altitude | Speed | Heading |
|---|---|---|---|---|---|
| 2026-05-08 00:40 | 40.49285 | -3.56879 | 1980 ft | 0 kts | 90° |
| 2026-05-08 01:23 | 40.49285 | -3.56894 | 1980 ft | 4 kts | 89° |
| 2026-05-08 01:23 | 40.49285 | -3.56930 | 1981 ft | 4 kts | 89° |
| 2026-05-08 01:23 | 40.49285 | -3.56961 | 1984 ft | 4 kts | 94° |
| 2026-05-08 01:23 | 40.49290 | -3.56987 | 1986 ft | 4 kts | 126° |
| 2026-05-08 01:24 | 40.49303 | -3.57000 | 1985 ft | 4 kts | 166° |
| 2026-05-08 01:24 | 40.49328 | -3.57002 | 1985 ft | 4 kts | 181° |
| 2026-05-08 01:24 | 40.49347 | -3.57002 | 1986 ft | 0 kts | 180° |
| 2026-05-08 01:30 | 40.49345 | -3.57002 | 1986 ft | 0 kts | 180° |
| 2026-05-08 01:30 | 40.49342 | -3.57002 | 1984 ft | 1 kts | 180° |
| 2026-05-08 01:30 | 40.49331 | -3.57003 | 1985 ft | 3 kts | 187° |
| 2026-05-08 01:30 | 40.49309 | -3.57019 | 1987 ft | 3 kts | 228° |
| 2026-05-08 01:31 | 40.49295 | -3.57054 | 1986 ft | 8 kts | 242° |
| 2026-05-08 01:31 | 40.49242 | -3.57105 | 1989 ft | 12 kts | 195° |
| 2026-05-08 01:31 | 40.49145 | -3.57114 | 1990 ft | 15 kts | 181° |
| 2026-05-08 01:31 | 40.49064 | -3.57159 | 1991 ft | 14 kts | 251° |
| 2026-05-08 01:32 | 40.49060 | -3.57275 | 1994 ft | 12 kts | 281° |
| 2026-05-08 01:32 | 40.49109 | -3.57366 | 1995 ft | 13 kts | 313° |
| 2026-05-08 01:32 | 40.49183 | -3.57443 | 1994 ft | 15 kts | 340° |
| 2026-05-08 01:32 | 40.49292 | -3.57452 | 1992 ft | 14 kts | 0° |
| 2026-05-08 01:33 | 40.49313 | -3.57452 | 1991 ft | 0 kts | 0° |
| 2026-05-08 01:33 | 40.49316 | -3.57452 | 1991 ft | 6 kts | 0° |
| 2026-05-08 01:33 | 40.49564 | -3.57451 | 1993 ft | 66 kts | 359° |
| 2026-05-08 01:33 | 40.50221 | -3.57457 | 1999 ft | 122 kts | 360° |
| 2026-05-08 01:34 | 40.51235 | -3.57466 | 2003 ft | 169 kts | 359° |
| 2026-05-08 01:34 | 40.52524 | -3.57489 | 2159 ft | 194 kts | 359° |
| 2026-05-08 01:34 | 40.53888 | -3.57508 | 2714 ft | 198 kts | 359° |
| 2026-05-08 01:34 | 40.55284 | -3.57518 | 3311 ft | 202 kts | 360° |
| 2026-05-08 01:35 | 40.56699 | -3.57524 | 3926 ft | 205 kts | 1° |
| 2026-05-08 01:35 | 40.58170 | -3.57530 | 4204 ft | 217 kts | 1° |
| 2026-05-08 01:35 | 40.59723 | -3.57440 | 4456 ft | 230 kts | 11° |
| 2026-05-08 01:35 | 40.61276 | -3.56801 | 4794 ft | 238 kts | 25° |
| 2026-05-08 01:36 | 40.62790 | -3.55880 | 5309 ft | 240 kts | 27° |
| 2026-05-08 01:36 | 40.64378 | -3.55118 | 5728 ft | 250 kts | 12° |
| 2026-05-08 01:36 | 40.66158 | -3.54983 | 5999 ft | 265 kts | 348° |
| 2026-05-08 01:36 | 40.67830 | -3.56063 | 6254 ft | 277 kts | 312° |
| 2026-05-08 01:37 | 40.68781 | -3.58262 | 6594 ft | 281 kts | 277° |
| 2026-05-08 01:37 | 40.68763 | -3.60811 | 7127 ft | 278 kts | 261° |
| 2026-05-08 01:37 | 40.68559 | -3.63352 | 7715 ft | 279 kts | 262° |
| 2026-05-08 01:37 | 40.68380 | -3.65909 | 8275 ft | 281 kts | 262° |
| 2026-05-08 01:38 | 40.68210 | -3.68480 | 8843 ft | 281 kts | 263° |
| 2026-05-08 01:38 | 40.68043 | -3.71063 | 9348 ft | 285 kts | 263° |
| 2026-05-08 01:38 | 40.67873 | -3.73709 | 9802 ft | 291 kts | 263° |
| 2026-05-08 01:38 | 40.67705 | -3.76353 | 10429 ft | 288 kts | 263° |
| 2026-05-08 01:39 | 40.67539 | -3.78984 | 10959 ft | 288 kts | 262° |
| 2026-05-08 01:39 | 40.67369 | -3.81639 | 11408 ft | 292 kts | 262° |
| 2026-05-08 01:39 | 40.67194 | -3.84362 | 11672 ft | 304 kts | 262° |
| 2026-05-08 01:39 | 40.67011 | -3.87203 | 11911 ft | 317 kts | 262° |
| 2026-05-08 01:40 | 40.66820 | -3.90156 | 12152 ft | 329 kts | 262° |
| 2026-05-08 01:40 | 40.66623 | -3.93175 | 12376 ft | 341 kts | 262° |
| 2026-05-08 01:40 | 40.66416 | -3.96348 | 12603 ft | 353 kts | 262° |
| 2026-05-08 01:40 | 40.66202 | -3.99632 | 12834 ft | 365 kts | 263° |
| 2026-05-08 01:41 | 40.65980 | -4.03020 | 13070 ft | 376 kts | 263° |
| 2026-05-08 01:41 | 40.65753 | -4.06489 | 13492 ft | 382 kts | 263° |
| 2026-05-08 01:41 | 40.65525 | -4.09986 | 14032 ft | 384 kts | 263° |
| 2026-05-08 01:41 | 40.65293 | -4.13499 | 14527 ft | 386 kts | 262° |
| 2026-05-08 01:42 | 40.65059 | -4.17037 | 15024 ft | 388 kts | 262° |
| 2026-05-08 01:42 | 40.64821 | -4.20589 | 15510 ft | 390 kts | 262° |
| 2026-05-08 01:42 | 40.64581 | -4.24165 | 15988 ft | 392 kts | 262° |
| 2026-05-08 01:42 | 40.64339 | -4.27754 | 16464 ft | 394 kts | 262° |
| 2026-05-08 01:43 | 40.64093 | -4.31368 | 16928 ft | 397 kts | 262° |
| 2026-05-08 01:43 | 40.63846 | -4.34999 | 17395 ft | 399 kts | 262° |
| 2026-05-08 01:43 | 40.63595 | -4.38649 | 17880 ft | 401 kts | 262° |
| 2026-05-08 01:43 | 40.63342 | -4.42322 | 18330 ft | 403 kts | 262° |
| 2026-05-08 01:44 | 40.63085 | -4.46015 | 18730 ft | 405 kts | 262° |
| 2026-05-08 01:44 | 40.62825 | -4.49722 | 19127 ft | 407 kts | 261° |
| 2026-05-08 01:44 | 40.62269 | -4.53378 | 19478 ft | 407 kts | 250° |
| 2026-05-08 01:44 | 40.61188 | -4.56818 | 19870 ft | 407 kts | 240° |
| 2026-05-08 01:45 | 40.59660 | -4.59951 | 20261 ft | 407 kts | 232° |
| 2026-05-08 01:45 | 40.57968 | -4.62962 | 20619 ft | 410 kts | 232° |
| 2026-05-08 01:45 | 40.56245 | -4.65977 | 20973 ft | 413 kts | 232° |
| 2026-05-08 01:45 | 40.54777 | -4.69244 | 21265 ft | 420 kts | 249° |
| 2026-05-08 01:46 | 40.54283 | -4.73053 | 21588 ft | 428 kts | 268° |
| 2026-05-08 01:46 | 40.54457 | -4.76967 | 22076 ft | 428 kts | 271° |
| 2026-05-08 01:46 | 40.54642 | -4.80891 | 22432 ft | 431 kts | 270° |
| 2026-05-08 01:46 | 40.54802 | -4.84841 | 22763 ft | 433 kts | 270° |
| 2026-05-08 01:47 | 40.54946 | -4.88817 | 23112 ft | 435 kts | 270° |
| 2026-05-08 01:47 | 40.55079 | -4.92807 | 23478 ft | 437 kts | 270° |
| 2026-05-08 01:47 | 40.55206 | -4.96820 | 23796 ft | 439 kts | 269° |
| 2026-05-08 01:48 | 40.55450 | -5.04905 | 24340 ft | 444 kts | 269° |
| 2026-05-08 01:48 | 40.55567 | -5.08981 | 24642 ft | 446 kts | 269° |
| 2026-05-08 01:48 | 40.55682 | -5.13064 | 24946 ft | 447 kts | 269° |
| 2026-05-08 01:48 | 40.55796 | -5.17161 | 25247 ft | 448 kts | 269° |
| 2026-05-08 01:49 | 40.55909 | -5.21272 | 25543 ft | 450 kts | 269° |
| 2026-05-08 01:49 | 40.56021 | -5.25393 | 25816 ft | 451 kts | 269° |
| 2026-05-08 01:49 | 40.56131 | -5.29522 | 26062 ft | 452 kts | 269° |
| 2026-05-08 01:49 | 40.56240 | -5.33668 | 26305 ft | 453 kts | 269° |
| 2026-05-08 01:50 | 40.56349 | -5.37820 | 26498 ft | 455 kts | 269° |
| 2026-05-08 01:50 | 40.56456 | -5.41993 | 26657 ft | 457 kts | 269° |
| 2026-05-08 01:50 | 40.56561 | -5.46181 | 26824 ft | 458 kts | 268° |
| 2026-05-08 01:50 | 40.56665 | -5.50375 | 26986 ft | 459 kts | 268° |
| 2026-05-08 01:51 | 40.56767 | -5.54580 | 27134 ft | 459 kts | 268° |
| 2026-05-08 01:51 | 40.56869 | -5.58783 | 27284 ft | 459 kts | 268° |
| 2026-05-08 01:51 | 40.56969 | -5.62987 | 27474 ft | 459 kts | 268° |
| 2026-05-08 01:51 | 40.57067 | -5.67180 | 27726 ft | 458 kts | 268° |
| 2026-05-08 01:52 | 40.57164 | -5.71373 | 28059 ft | 457 kts | 268° |
| 2026-05-08 01:52 | 40.57260 | -5.75500 | 28369 ft | 457 kts | 268° |
| 2026-05-08 01:52 | 40.57353 | -5.79686 | 28651 ft | 458 kts | 268° |
| 2026-05-08 01:52 | 40.57444 | -5.83883 | 28918 ft | 459 kts | 268° |
| 2026-05-08 01:53 | 40.57534 | -5.88088 | 29207 ft | 459 kts | 268° |
| 2026-05-08 01:53 | 40.57623 | -5.92296 | 29494 ft | 460 kts | 268° |
| 2026-05-08 01:53 | 40.57711 | -5.96511 | 29786 ft | 460 kts | 268° |
| 2026-05-08 01:53 | 40.57797 | -6.00734 | 29892 ft | 462 kts | 268° |
| 2026-05-08 01:54 | 40.57965 | -6.09190 | 29928 ft | 462 kts | 268° |
| 2026-05-08 01:54 | 40.58129 | -6.17665 | 29915 ft | 463 kts | 267° |
| 2026-05-08 01:55 | 40.58283 | -6.26152 | 29905 ft | 464 kts | 267° |
| 2026-05-08 01:55 | 40.58539 | -6.34652 | 29905 ft | 466 kts | 271° |
| 2026-05-08 01:56 | 40.59404 | -6.43132 | 29908 ft | 469 kts | 275° |
| 2026-05-08 01:56 | 40.60358 | -6.51619 | 29917 ft | 469 kts | 273° |
| 2026-05-08 01:57 | 40.61171 | -6.60152 | 29918 ft | 469 kts | 272° |
| 2026-05-08 01:57 | 40.61964 | -6.68696 | 29916 ft | 469 kts | 272° |
| 2026-05-08 01:58 | 40.62748 | -6.77238 | 29913 ft | 469 kts | 272° |
| 2026-05-08 01:58 | 40.63525 | -6.85786 | 29930 ft | 470 kts | 272° |
| 2026-05-08 01:59 | 40.64297 | -6.94360 | 29916 ft | 472 kts | 272° |
| 2026-05-08 01:59 | 40.65064 | -7.02957 | 29917 ft | 472 kts | 272° |
| 2026-05-08 02:00 | 40.65825 | -7.11551 | 29918 ft | 472 kts | 272° |
| 2026-05-08 02:00 | 40.66575 | -7.20090 | 29919 ft | 472 kts | 272° |
| 2026-05-08 02:01 | 40.67326 | -7.28702 | 29908 ft | 474 kts | 272° |
| 2026-05-08 02:01 | 40.68066 | -7.37337 | 29924 ft | 474 kts | 272° |
| 2026-05-08 02:02 | 40.68804 | -7.45978 | 29925 ft | 474 kts | 272° |
| 2026-05-08 02:02 | 40.69539 | -7.54628 | 29926 ft | 474 kts | 272° |
| 2026-05-08 02:03 | 40.70267 | -7.63275 | 29925 ft | 475 kts | 271° |
| 2026-05-08 02:03 | 40.70989 | -7.71968 | 29919 ft | 477 kts | 271° |
| 2026-05-08 02:04 | 40.71704 | -7.80676 | 29918 ft | 477 kts | 271° |
| 2026-05-08 02:04 | 40.72415 | -7.89383 | 29920 ft | 477 kts | 271° |
| 2026-05-08 02:05 | 40.73162 | -7.98095 | 29921 ft | 477 kts | 272° |
| 2026-05-08 02:05 | 40.73912 | -8.06803 | 29929 ft | 477 kts | 272° |
| 2026-05-08 02:06 | 40.74652 | -8.15518 | 29921 ft | 477 kts | 271° |
| 2026-05-08 02:06 | 40.75383 | -8.24239 | 29923 ft | 477 kts | 271° |
| 2026-05-08 02:07 | 40.76107 | -8.32954 | 29923 ft | 477 kts | 271° |
| 2026-05-08 02:07 | 40.76827 | -8.41684 | 29930 ft | 479 kts | 271° |
| 2026-05-08 02:08 | 40.77538 | -8.50437 | 29920 ft | 479 kts | 271° |
| 2026-05-08 02:08 | 40.78244 | -8.59190 | 29914 ft | 479 kts | 271° |
| 2026-05-08 02:09 | 40.78944 | -8.67949 | 29913 ft | 479 kts | 271° |
| 2026-05-08 02:09 | 40.79639 | -8.76712 | 29918 ft | 481 kts | 271° |
| 2026-05-08 02:10 | 40.80325 | -8.85504 | 29913 ft | 480 kts | 271° |
| 2026-05-08 02:10 | 40.81007 | -8.94288 | 29905 ft | 480 kts | 271° |
| 2026-05-08 02:11 | 40.81682 | -9.03073 | 29904 ft | 481 kts | 271° |
| 2026-05-08 02:11 | 40.82352 | -9.11869 | 29928 ft | 481 kts | 270° |
| 2026-05-08 02:12 | 40.83015 | -9.20681 | 29909 ft | 482 kts | 270° |
| 2026-05-08 02:12 | 40.83669 | -9.29498 | 29906 ft | 482 kts | 270° |
| 2026-05-08 02:13 | 40.84313 | -9.38260 | 29905 ft | 482 kts | 270° |
| 2026-05-08 02:13 | 40.84492 | -9.47047 | 29936 ft | 474 kts | 260° |
| 2026-05-08 02:14 | 40.83328 | -9.55573 | 29905 ft | 468 kts | 248° |
| 2026-05-08 02:14 | 40.81072 | -9.63596 | 29903 ft | 465 kts | 243° |
| 2026-05-08 02:15 | 40.78631 | -9.71509 | 29899 ft | 465 kts | 243° |
| 2026-05-08 02:15 | 40.76187 | -9.79420 | 29899 ft | 465 kts | 243° |
| 2026-05-08 02:16 | 40.73746 | -9.87328 | 29913 ft | 465 kts | 243° |
| 2026-05-08 02:16 | 40.71712 | -9.93904 | 29904 ft | 465 kts | 242° |
| 2026-05-08 02:17 | 40.69262 | -10.01806 | 29916 ft | 466 kts | 242° |
| 2026-05-08 02:17 | 40.66806 | -10.09712 | 29904 ft | 466 kts | 242° |
| 2026-05-08 02:18 | 40.64343 | -10.17611 | 29896 ft | 466 kts | 242° |
| 2026-05-08 02:18 | 40.61873 | -10.25516 | 29917 ft | 467 kts | 242° |
| 2026-05-08 02:19 | 40.59390 | -10.33436 | 29893 ft | 468 kts | 242° |
| 2026-05-08 02:19 | 40.56902 | -10.41350 | 29896 ft | 468 kts | 242° |
| 2026-05-08 02:20 | 40.54407 | -10.49263 | 29895 ft | 468 kts | 242° |
| 2026-05-08 02:20 | 40.51908 | -10.57166 | 29893 ft | 468 kts | 242° |
| 2026-05-08 02:21 | 40.49399 | -10.65073 | 29903 ft | 468 kts | 242° |
| 2026-05-08 02:21 | 40.46885 | -10.72979 | 29897 ft | 468 kts | 242° |
| 2026-05-08 02:22 | 40.44365 | -10.80876 | 29896 ft | 468 kts | 242° |
| 2026-05-08 02:22 | 40.41840 | -10.88769 | 29894 ft | 468 kts | 242° |
| 2026-05-08 02:23 | 40.39309 | -10.96659 | 29922 ft | 468 kts | 241° |
| 2026-05-08 02:23 | 40.36781 | -11.04516 | 29901 ft | 466 kts | 241° |
| 2026-05-08 02:24 | 40.34253 | -11.12349 | 29896 ft | 466 kts | 241° |
| 2026-05-08 02:24 | 40.31739 | -11.20117 | 29894 ft | 466 kts | 241° |
| 2026-05-08 02:25 | 40.29201 | -11.27937 | 29893 ft | 465 kts | 241° |
| 2026-05-08 02:25 | 40.26663 | -11.35731 | 29896 ft | 463 kts | 242° |
| 2026-05-08 02:26 | 40.24136 | -11.43474 | 29890 ft | 461 kts | 242° |
| 2026-05-08 02:26 | 40.21608 | -11.51203 | 29891 ft | 461 kts | 242° |
| 2026-05-08 02:27 | 40.19076 | -11.58919 | 29889 ft | 461 kts | 242° |
| 2026-05-08 02:27 | 40.16537 | -11.66635 | 29894 ft | 461 kts | 241° |
| 2026-05-08 02:28 | 40.13992 | -11.74346 | 29888 ft | 461 kts | 241° |
| 2026-05-08 02:28 | 40.11444 | -11.82045 | 29879 ft | 461 kts | 241° |
| 2026-05-08 02:29 | 40.08890 | -11.89740 | 29878 ft | 461 kts | 241° |
| 2026-05-08 02:29 | 40.06333 | -11.97425 | 29881 ft | 461 kts | 241° |
| 2026-05-08 02:30 | 40.03769 | -12.05110 | 29899 ft | 461 kts | 241° |
| 2026-05-08 02:30 | 40.01204 | -12.12772 | 29878 ft | 460 kts | 241° |
| 2026-05-08 02:31 | 39.98640 | -12.20418 | 29867 ft | 460 kts | 241° |
| 2026-05-08 02:31 | 39.96070 | -12.28059 | 29866 ft | 460 kts | 241° |
| 2026-05-08 02:32 | 39.93494 | -12.35696 | 29865 ft | 459 kts | 241° |
| 2026-05-08 02:32 | 39.90913 | -12.43319 | 29886 ft | 459 kts | 242° |
| 2026-05-08 02:33 | 39.88329 | -12.50929 | 29862 ft | 459 kts | 242° |
| 2026-05-08 02:33 | 39.85746 | -12.58537 | 29861 ft | 459 kts | 242° |
| 2026-05-08 02:34 | 39.83175 | -12.66083 | 29856 ft | 459 kts | 242° |
| 2026-05-08 02:34 | 39.80582 | -12.73673 | 29855 ft | 459 kts | 242° |
| 2026-05-08 02:35 | 39.77975 | -12.81246 | 29854 ft | 457 kts | 243° |
| 2026-05-08 02:35 | 39.75379 | -12.88802 | 29842 ft | 457 kts | 243° |
| 2026-05-08 02:36 | 39.72785 | -12.96318 | 29846 ft | 454 kts | 244° |
| 2026-05-08 02:36 | 39.70206 | -13.03807 | 29847 ft | 454 kts | 244° |
| 2026-05-08 02:37 | 39.67619 | -13.11286 | 29836 ft | 453 kts | 244° |
| 2026-05-08 02:37 | 39.65027 | -13.18727 | 29837 ft | 449 kts | 245° |
| 2026-05-08 02:38 | 39.62468 | -13.26100 | 29835 ft | 447 kts | 245° |
| 2026-05-08 02:38 | 39.59908 | -13.33457 | 29831 ft | 447 kts | 245° |
| 2026-05-08 02:39 | 39.57339 | -13.40805 | 29829 ft | 447 kts | 245° |
| 2026-05-08 02:39 | 39.54765 | -13.48146 | 29829 ft | 447 kts | 245° |
| 2026-05-08 02:40 | 39.52192 | -13.55459 | 29820 ft | 444 kts | 245° |
| 2026-05-08 02:40 | 39.49627 | -13.62736 | 29819 ft | 443 kts | 245° |
| 2026-05-08 02:41 | 39.47058 | -13.70007 | 29813 ft | 443 kts | 245° |
| 2026-05-08 02:41 | 39.44486 | -13.77267 | 29816 ft | 443 kts | 245° |
| 2026-05-08 02:42 | 39.41908 | -13.84523 | 29785 ft | 443 kts | 245° |
| 2026-05-08 02:42 | 39.39344 | -13.91735 | 29805 ft | 440 kts | 245° |
| 2026-05-08 02:43 | 39.36777 | -13.98922 | 29801 ft | 439 kts | 245° |
| 2026-05-08 02:43 | 39.34227 | -14.06046 | 29802 ft | 439 kts | 245° |
| 2026-05-08 02:44 | 39.31654 | -14.13218 | 29794 ft | 439 kts | 245° |
| 2026-05-08 02:44 | 39.29078 | -14.20381 | 29793 ft | 439 kts | 245° |
| 2026-05-08 02:45 | 39.26511 | -14.27521 | 29786 ft | 436 kts | 244° |
| 2026-05-08 02:45 | 39.23945 | -14.34614 | 29784 ft | 435 kts | 244° |
| 2026-05-08 02:46 | 39.21378 | -14.41694 | 29777 ft | 435 kts | 244° |
| 2026-05-08 02:46 | 39.18806 | -14.48772 | 29775 ft | 435 kts | 244° |
| 2026-05-08 02:47 | 39.16231 | -14.55844 | 29770 ft | 435 kts | 244° |
| 2026-05-08 02:47 | 39.13661 | -14.62904 | 29774 ft | 434 kts | 243° |
| 2026-05-08 02:48 | 39.11080 | -14.69941 | 29763 ft | 434 kts | 243° |
| 2026-05-08 02:48 | 39.08497 | -14.76974 | 29763 ft | 434 kts | 243° |
| 2026-05-08 02:49 | 39.05916 | -14.83995 | 29751 ft | 433 kts | 243° |
| 2026-05-08 02:49 | 39.03331 | -14.91006 | 29752 ft | 433 kts | 243° |
| 2026-05-08 02:50 | 39.00745 | -14.98023 | 29750 ft | 434 kts | 242° |
| 2026-05-08 02:50 | 38.98149 | -15.05052 | 29746 ft | 435 kts | 242° |
| 2026-05-08 02:51 | 38.95572 | -15.12034 | 29742 ft | 435 kts | 242° |
| 2026-05-08 02:51 | 38.92969 | -15.19067 | 29737 ft | 435 kts | 242° |
| 2026-05-08 02:52 | 38.90364 | -15.26089 | 29729 ft | 435 kts | 242° |
| 2026-05-08 02:52 | 38.87753 | -15.33108 | 29730 ft | 435 kts | 242° |
| 2026-05-08 02:53 | 38.85139 | -15.40121 | 29718 ft | 435 kts | 242° |
| 2026-05-08 02:53 | 38.82519 | -15.47130 | 29719 ft | 435 kts | 242° |
| 2026-05-08 02:54 | 38.79897 | -15.54132 | 29707 ft | 435 kts | 242° |
| 2026-05-08 02:54 | 38.77268 | -15.61132 | 29707 ft | 435 kts | 242° |
| 2026-05-08 02:55 | 38.73471 | -15.71227 | 29687 ft | 440 kts | 241° |
| 2026-05-08 02:56 | 38.70779 | -15.78348 | 29873 ft | 447 kts | 241° |
| 2026-05-08 02:56 | 38.69441 | -15.81883 | 30165 ft | 446 kts | 241° |
| 2026-05-08 02:56 | 38.68072 | -15.85498 | 30560 ft | 443 kts | 241° |
| 2026-05-08 02:56 | 38.66747 | -15.88992 | 30933 ft | 441 kts | 241° |
| 2026-05-08 02:57 | 38.65407 | -15.92523 | 31300 ft | 439 kts | 241° |
| 2026-05-08 02:57 | 38.64073 | -15.96032 | 31619 ft | 437 kts | 241° |
| 2026-05-08 02:57 | 38.62742 | -15.99530 | 31659 ft | 436 kts | 241° |
| 2026-05-08 02:58 | 38.60043 | -16.06618 | 31675 ft | 443 kts | 240° |
| 2026-05-08 02:58 | 38.57333 | -16.13707 | 31666 ft | 444 kts | 240° |
| 2026-05-08 02:59 | 38.54636 | -16.20749 | 31652 ft | 444 kts | 240° |
| 2026-05-08 02:59 | 38.51917 | -16.27834 | 31652 ft | 444 kts | 240° |
| 2026-05-08 03:00 | 38.49193 | -16.34914 | 31689 ft | 444 kts | 240° |
| 2026-05-08 03:00 | 38.46433 | -16.42063 | 31652 ft | 452 kts | 240° |
| 2026-05-08 03:01 | 38.43646 | -16.49275 | 31645 ft | 453 kts | 240° |
| 2026-05-08 03:01 | 38.40853 | -16.56488 | 31639 ft | 453 kts | 240° |
| 2026-05-08 03:02 | 38.38054 | -16.63697 | 31623 ft | 453 kts | 240° |
| 2026-05-08 03:02 | 38.35269 | -16.70849 | 31670 ft | 448 kts | 240° |
| 2026-05-08 03:03 | 38.32470 | -16.78013 | 31641 ft | 453 kts | 241° |
| 2026-05-08 03:03 | 38.29676 | -16.85162 | 31637 ft | 453 kts | 241° |
| 2026-05-08 03:04 | 38.26859 | -16.92356 | 31636 ft | 454 kts | 240° |
| 2026-05-08 03:04 | 38.24035 | -16.99545 | 31630 ft | 454 kts | 240° |
| 2026-05-08 03:05 | 38.21206 | -17.06725 | 31657 ft | 454 kts | 241° |
| 2026-05-08 03:05 | 38.18361 | -17.13921 | 31643 ft | 455 kts | 241° |
| 2026-05-08 03:06 | 38.15517 | -17.21119 | 31639 ft | 455 kts | 241° |
| 2026-05-08 03:06 | 38.12668 | -17.28310 | 31643 ft | 455 kts | 241° |
| 2026-05-08 03:07 | 38.09813 | -17.35493 | 31642 ft | 455 kts | 241° |
| 2026-05-08 03:07 | 38.06950 | -17.42673 | 31660 ft | 455 kts | 242° |
| 2026-05-08 03:08 | 38.04550 | -17.48678 | 31653 ft | 455 kts | 242° |
| 2026-05-08 03:08 | 38.01686 | -17.55845 | 31635 ft | 455 kts | 242° |
| 2026-05-08 03:09 | 37.98818 | -17.62992 | 31645 ft | 453 kts | 242° |
| 2026-05-08 03:09 | 37.95975 | -17.70070 | 31648 ft | 453 kts | 242° |
| 2026-05-08 03:10 | 37.93107 | -17.77188 | 31664 ft | 453 kts | 242° |
| 2026-05-08 03:10 | 37.90232 | -17.84306 | 31656 ft | 454 kts | 242° |
| 2026-05-08 03:11 | 37.87354 | -17.91423 | 31658 ft | 453 kts | 242° |
| 2026-05-08 03:11 | 37.84469 | -17.98540 | 31657 ft | 454 kts | 242° |
| 2026-05-08 03:12 | 37.81581 | -18.05645 | 31655 ft | 454 kts | 242° |
| 2026-05-08 03:12 | 37.78684 | -18.12748 | 31663 ft | 455 kts | 242° |
| 2026-05-08 03:13 | 37.75776 | -18.19871 | 31666 ft | 456 kts | 242° |
| 2026-05-08 03:13 | 37.72860 | -18.27000 | 31663 ft | 456 kts | 242° |
| 2026-05-08 03:14 | 37.69939 | -18.34121 | 31666 ft | 456 kts | 242° |
| 2026-05-08 03:14 | 37.67016 | -18.41232 | 31665 ft | 456 kts | 242° |
| 2026-05-08 03:15 | 37.64080 | -18.48347 | 31669 ft | 456 kts | 243° |
| 2026-05-08 03:15 | 37.61154 | -18.55430 | 31676 ft | 454 kts | 243° |
| 2026-05-08 03:16 | 37.58230 | -18.62503 | 31671 ft | 454 kts | 243° |
| 2026-05-08 03:16 | 37.55299 | -18.69571 | 31677 ft | 454 kts | 243° |
| 2026-05-08 03:17 | 37.52364 | -18.76632 | 31670 ft | 454 kts | 243° |
| 2026-05-08 03:17 | 37.49424 | -18.83688 | 31682 ft | 454 kts | 243° |
| 2026-05-08 03:18 | 37.46481 | -18.90737 | 31686 ft | 454 kts | 242° |
| 2026-05-08 03:18 | 37.43532 | -18.97783 | 31682 ft | 454 kts | 242° |
| 2026-05-08 03:19 | 37.40581 | -19.04820 | 31679 ft | 454 kts | 242° |
| 2026-05-08 03:19 | 37.37624 | -19.11855 | 31677 ft | 454 kts | 242° |
| 2026-05-08 03:20 | 37.34654 | -19.18894 | 31692 ft | 455 kts | 243° |
| 2026-05-08 03:20 | 37.31707 | -19.25878 | 31693 ft | 455 kts | 243° |
| 2026-05-08 03:21 | 37.28735 | -19.32907 | 31699 ft | 455 kts | 243° |
| 2026-05-08 03:21 | 37.25759 | -19.39921 | 31690 ft | 453 kts | 243° |
| 2026-05-08 03:22 | 37.22797 | -19.46890 | 31690 ft | 452 kts | 243° |
| 2026-05-08 03:22 | 37.19828 | -19.53856 | 31707 ft | 453 kts | 243° |
| 2026-05-08 03:23 | 37.16855 | -19.60828 | 31706 ft | 453 kts | 243° |
| 2026-05-08 03:23 | 37.13875 | -19.67795 | 31709 ft | 453 kts | 243° |
| 2026-05-08 03:24 | 37.10892 | -19.74755 | 31710 ft | 453 kts | 243° |
| 2026-05-08 03:24 | 37.07901 | -19.81713 | 31704 ft | 453 kts | 243° |
| 2026-05-08 03:25 | 37.04905 | -19.88667 | 31704 ft | 453 kts | 243° |
| 2026-05-08 03:25 | 37.01903 | -19.95624 | 31713 ft | 454 kts | 243° |
| 2026-05-08 03:26 | 36.98902 | -20.02573 | 31716 ft | 454 kts | 243° |
| 2026-05-08 03:26 | 36.95907 | -20.09526 | 31725 ft | 454 kts | 243° |
| 2026-05-08 03:27 | 36.92905 | -20.16473 | 31726 ft | 454 kts | 244° |
| 2026-05-08 03:27 | 36.89894 | -20.23423 | 31717 ft | 454 kts | 244° |
| 2026-05-08 03:28 | 36.86883 | -20.30361 | 31717 ft | 452 kts | 244° |
| 2026-05-08 03:28 | 36.83904 | -20.37207 | 31731 ft | 451 kts | 244° |
| 2026-05-08 03:29 | 36.80906 | -20.44085 | 31733 ft | 450 kts | 244° |
| 2026-05-08 03:29 | 36.77902 | -20.50956 | 31729 ft | 451 kts | 244° |
| 2026-05-08 03:30 | 36.73386 | -20.61269 | 31737 ft | 451 kts | 244° |
| 2026-05-08 03:31 | 36.67349 | -20.75003 | 31741 ft | 451 kts | 244° |
| 2026-05-08 03:32 | 36.62805 | -20.85291 | 31739 ft | 453 kts | 244° |
| 2026-05-08 03:32 | 36.59845 | -20.91983 | 31748 ft | 453 kts | 244° |
| 2026-05-08 03:33 | 36.53650 | -21.05947 | 31752 ft | 453 kts | 244° |
| 2026-05-08 03:34 | 36.50591 | -21.12818 | 31752 ft | 453 kts | 244° |
| 2026-05-08 03:34 | 36.47525 | -21.19680 | 31755 ft | 454 kts | 244° |
| 2026-05-08 03:35 | 36.44457 | -21.26546 | 31759 ft | 454 kts | 244° |
| 2026-05-08 03:35 | 36.41370 | -21.33441 | 31768 ft | 454 kts | 244° |
| 2026-05-08 03:36 | 36.38291 | -21.40300 | 31767 ft | 454 kts | 244° |
| 2026-05-08 03:36 | 36.35728 | -21.45999 | 31776 ft | 454 kts | 244° |
| 2026-05-08 03:37 | 36.33752 | -21.50379 | 31770 ft | 455 kts | 245° |
| 2026-05-08 03:37 | 36.31497 | -21.55375 | 31782 ft | 456 kts | 245° |
| 2026-05-08 03:38 | 36.28564 | -21.61871 | 31774 ft | 456 kts | 245° |
| 2026-05-08 03:38 | 36.25721 | -21.68152 | 31793 ft | 456 kts | 245° |
| 2026-05-08 03:39 | 36.22581 | -21.75074 | 31787 ft | 456 kts | 244° |
| 2026-05-08 03:39 | 36.19463 | -21.81931 | 31780 ft | 457 kts | 245° |
| 2026-05-08 03:40 | 36.16330 | -21.88799 | 31792 ft | 458 kts | 245° |
| 2026-05-08 03:40 | 36.13193 | -21.95676 | 31795 ft | 458 kts | 245° |
| 2026-05-08 03:41 | 36.10055 | -22.02540 | 31770 ft | 458 kts | 245° |
| 2026-05-08 03:41 | 36.06922 | -22.09372 | 31799 ft | 455 kts | 245° |
| 2026-05-08 03:42 | 36.03819 | -22.16131 | 31803 ft | 454 kts | 245° |
| 2026-05-08 03:42 | 36.00694 | -22.22924 | 31809 ft | 455 kts | 245° |
| 2026-05-08 03:43 | 35.97561 | -22.29719 | 31811 ft | 455 kts | 245° |
| 2026-05-08 03:43 | 35.94278 | -22.36826 | 31812 ft | 455 kts | 245° |
| 2026-05-08 03:44 | 35.91138 | -22.43607 | 31818 ft | 455 kts | 245° |
| 2026-05-08 03:44 | 35.87988 | -22.50385 | 31821 ft | 455 kts | 245° |
| 2026-05-08 03:45 | 35.84836 | -22.57168 | 31824 ft | 456 kts | 245° |
| 2026-05-08 03:45 | 35.81678 | -22.63953 | 31828 ft | 456 kts | 245° |
| 2026-05-08 03:46 | 35.78515 | -22.70731 | 31827 ft | 456 kts | 245° |
| 2026-05-08 03:46 | 35.75370 | -22.77456 | 31842 ft | 456 kts | 245° |
| 2026-05-08 03:47 | 35.72189 | -22.84231 | 31832 ft | 457 kts | 246° |
| 2026-05-08 03:47 | 35.69009 | -22.91007 | 31836 ft | 456 kts | 246° |
| 2026-05-08 03:48 | 35.65838 | -22.97745 | 31846 ft | 454 kts | 246° |
| 2026-05-08 03:48 | 35.62674 | -23.04464 | 31854 ft | 454 kts | 246° |
| 2026-05-08 03:49 | 35.59503 | -23.11180 | 31819 ft | 454 kts | 246° |
| 2026-05-08 03:49 | 35.56322 | -23.17890 | 31857 ft | 454 kts | 246° |
| 2026-05-08 03:50 | 35.53143 | -23.24602 | 31865 ft | 454 kts | 246° |
| 2026-05-08 03:50 | 35.49957 | -23.31311 | 31867 ft | 454 kts | 246° |
| 2026-05-08 03:51 | 35.46766 | -23.38016 | 31873 ft | 454 kts | 246° |
| 2026-05-08 03:51 | 35.43569 | -23.44717 | 31842 ft | 455 kts | 247° |
| 2026-05-08 03:52 | 35.40358 | -23.51430 | 31872 ft | 456 kts | 247° |
| 2026-05-08 03:52 | 35.37140 | -23.58156 | 31879 ft | 457 kts | 247° |
| 2026-05-08 03:53 | 35.33919 | -23.64871 | 31888 ft | 457 kts | 247° |
| 2026-05-08 03:53 | 35.30693 | -23.71583 | 31885 ft | 457 kts | 247° |
| 2026-05-08 03:54 | 35.27461 | -23.78277 | 31859 ft | 454 kts | 248° |
| 2026-05-08 03:54 | 35.24258 | -23.84911 | 31888 ft | 452 kts | 248° |
| 2026-05-08 03:55 | 35.21060 | -23.91536 | 31900 ft | 452 kts | 248° |
| 2026-05-08 03:55 | 35.17856 | -23.98154 | 31900 ft | 452 kts | 248° |
| 2026-05-08 03:56 | 35.14647 | -24.04769 | 31908 ft | 452 kts | 248° |
| 2026-05-08 03:56 | 35.11454 | -24.11323 | 31890 ft | 450 kts | 248° |
| 2026-05-08 03:57 | 35.08257 | -24.17885 | 31916 ft | 449 kts | 248° |
| 2026-05-08 03:57 | 35.05060 | -24.24442 | 31918 ft | 449 kts | 248° |
| 2026-05-08 03:58 | 35.01856 | -24.30996 | 31923 ft | 449 kts | 248° |
| 2026-05-08 03:58 | 34.98648 | -24.37544 | 31925 ft | 449 kts | 248° |
| 2026-05-08 03:59 | 34.95438 | -24.44077 | 31924 ft | 448 kts | 248° |
| 2026-05-08 03:59 | 34.92230 | -24.50602 | 31931 ft | 448 kts | 248° |
| 2026-05-08 04:00 | 34.89020 | -24.57119 | 31935 ft | 448 kts | 248° |
| 2026-05-08 04:00 | 34.85816 | -24.63600 | 31922 ft | 442 kts | 249° |
| 2026-05-08 04:01 | 34.82644 | -24.70013 | 31943 ft | 441 kts | 249° |
| 2026-05-08 04:01 | 34.79485 | -24.76392 | 31938 ft | 438 kts | 249° |
| 2026-05-08 04:02 | 34.76332 | -24.82748 | 31953 ft | 438 kts | 249° |
| 2026-05-08 04:02 | 34.73177 | -24.89096 | 31954 ft | 438 kts | 249° |
| 2026-05-08 04:03 | 34.70016 | -24.95444 | 31948 ft | 438 kts | 249° |
| 2026-05-08 04:03 | 34.65272 | -25.04943 | 31932 ft | 436 kts | 249° |
| 2026-05-08 04:04 | 34.62147 | -25.11183 | 31954 ft | 434 kts | 249° |
| 2026-05-08 04:04 | 34.59007 | -25.17450 | 31964 ft | 434 kts | 249° |
| 2026-05-08 04:05 | 34.55861 | -25.23716 | 31965 ft | 434 kts | 249° |
| 2026-05-08 04:05 | 34.52712 | -25.29977 | 31971 ft | 434 kts | 249° |
| 2026-05-08 04:06 | 34.49561 | -25.36230 | 31970 ft | 434 kts | 248° |
| 2026-05-08 04:06 | 34.46405 | -25.42482 | 31923 ft | 434 kts | 249° |
| 2026-05-08 04:07 | 34.43264 | -25.48676 | 31968 ft | 429 kts | 249° |
| 2026-05-08 04:07 | 34.40148 | -25.54833 | 31983 ft | 428 kts | 249° |
| 2026-05-08 04:08 | 34.37032 | -25.60978 | 31983 ft | 428 kts | 249° |
| 2026-05-08 04:08 | 34.33908 | -25.67119 | 31963 ft | 427 kts | 249° |
| 2026-05-08 04:09 | 34.30794 | -25.73233 | 31986 ft | 426 kts | 249° |
| 2026-05-08 04:09 | 34.27680 | -25.79342 | 31995 ft | 426 kts | 249° |
| 2026-05-08 04:10 | 34.24564 | -25.85443 | 32000 ft | 426 kts | 249° |
| 2026-05-08 04:10 | 34.21442 | -25.91542 | 32003 ft | 426 kts | 249° |
| 2026-05-08 04:11 | 34.18316 | -25.97634 | 31964 ft | 426 kts | 249° |
| 2026-05-08 04:11 | 34.15194 | -26.03709 | 31987 ft | 425 kts | 249° |
| 2026-05-08 04:12 | 34.12601 | -26.08754 | 32002 ft | 425 kts | 249° |
| 2026-05-08 04:12 | 34.09477 | -26.14820 | 32010 ft | 425 kts | 249° |
| 2026-05-08 04:13 | 34.06351 | -26.20879 | 32010 ft | 425 kts | 249° |
| 2026-05-08 04:13 | 34.03221 | -26.26927 | 31949 ft | 423 kts | 250° |
| 2026-05-08 04:14 | 34.00109 | -26.32932 | 32005 ft | 421 kts | 250° |
| 2026-05-08 04:14 | 33.97004 | -26.38922 | 32018 ft | 421 kts | 250° |
| 2026-05-08 04:15 | 33.93898 | -26.44905 | 32023 ft | 421 kts | 250° |
| 2026-05-08 04:15 | 33.90786 | -26.50885 | 32031 ft | 421 kts | 250° |
| 2026-05-08 04:16 | 33.87672 | -26.56859 | 31975 ft | 421 kts | 250° |
| 2026-05-08 04:16 | 33.84550 | -26.62840 | 32025 ft | 422 kts | 250° |
| 2026-05-08 04:17 | 33.81423 | -26.68818 | 32030 ft | 422 kts | 250° |
| 2026-05-08 04:17 | 33.78291 | -26.74796 | 32034 ft | 422 kts | 250° |
| 2026-05-08 04:18 | 33.75159 | -26.80766 | 32038 ft | 422 kts | 250° |
| 2026-05-08 04:18 | 33.72022 | -26.86733 | 32040 ft | 422 kts | 250° |
| 2026-05-08 04:19 | 33.68880 | -26.92703 | 32038 ft | 423 kts | 249° |
| 2026-05-08 04:19 | 33.65731 | -26.98674 | 32045 ft | 423 kts | 249° |
| 2026-05-08 04:20 | 33.62602 | -27.04598 | 32049 ft | 423 kts | 249° |
| 2026-05-08 04:20 | 33.59448 | -27.10562 | 32026 ft | 423 kts | 249° |
| 2026-05-08 04:21 | 33.56292 | -27.16515 | 32048 ft | 422 kts | 249° |
| 2026-05-08 04:21 | 33.53131 | -27.22473 | 32047 ft | 423 kts | 249° |
| 2026-05-08 04:22 | 33.49963 | -27.28431 | 32057 ft | 424 kts | 249° |
| 2026-05-08 04:22 | 33.46789 | -27.34387 | 32058 ft | 423 kts | 249° |
| 2026-05-08 04:23 | 33.43616 | -27.40336 | 32067 ft | 423 kts | 249° |
| 2026-05-08 04:23 | 33.40438 | -27.46283 | 32066 ft | 424 kts | 249° |
| 2026-05-08 04:24 | 33.37260 | -27.52234 | 32055 ft | 424 kts | 248° |
| 2026-05-08 04:24 | 33.34067 | -27.58187 | 32066 ft | 425 kts | 248° |
| 2026-05-08 04:25 | 33.30873 | -27.64132 | 32074 ft | 425 kts | 248° |
| 2026-05-08 04:25 | 33.27676 | -27.70075 | 32075 ft | 425 kts | 248° |
| 2026-05-08 04:26 | 33.24475 | -27.76016 | 32080 ft | 425 kts | 248° |
| 2026-05-08 04:26 | 33.21293 | -27.81922 | 32068 ft | 426 kts | 248° |
| 2026-05-08 04:27 | 33.18054 | -27.87921 | 32065 ft | 426 kts | 247° |
| 2026-05-08 04:27 | 33.14852 | -27.93833 | 32079 ft | 426 kts | 247° |
| 2026-05-08 04:28 | 33.11626 | -27.99778 | 32088 ft | 426 kts | 247° |
| 2026-05-08 04:28 | 33.08396 | -28.05725 | 32088 ft | 426 kts | 247° |
| 2026-05-08 04:29 | 33.05170 | -28.11665 | 32090 ft | 426 kts | 246° |
| 2026-05-08 04:29 | 33.01938 | -28.17595 | 32093 ft | 426 kts | 246° |
| 2026-05-08 04:30 | 32.98702 | -28.23522 | 32095 ft | 426 kts | 246° |
| 2026-05-08 04:30 | 32.95464 | -28.29445 | 32093 ft | 426 kts | 246° |
| 2026-05-08 04:31 | 32.92223 | -28.35366 | 32096 ft | 426 kts | 246° |
| 2026-05-08 04:31 | 32.88979 | -28.41283 | 32102 ft | 426 kts | 246° |
| 2026-05-08 04:32 | 32.85732 | -28.47196 | 32095 ft | 426 kts | 246° |
| 2026-05-08 04:32 | 32.82484 | -28.53101 | 32096 ft | 426 kts | 246° |
| 2026-05-08 04:33 | 32.79233 | -28.59003 | 32104 ft | 426 kts | 246° |
| 2026-05-08 04:33 | 32.75978 | -28.64903 | 32095 ft | 426 kts | 246° |
| 2026-05-08 04:34 | 32.72719 | -28.70816 | 32081 ft | 428 kts | 245° |
| 2026-05-08 04:34 | 32.69440 | -28.76734 | 32102 ft | 429 kts | 245° |
| 2026-05-08 04:35 | 32.66156 | -28.82652 | 32110 ft | 429 kts | 245° |
| 2026-05-08 04:35 | 32.62872 | -28.88565 | 32113 ft | 429 kts | 245° |
| 2026-05-08 04:36 | 32.59584 | -28.94476 | 32111 ft | 429 kts | 245° |
| 2026-05-08 04:36 | 32.56293 | -29.00389 | 32109 ft | 430 kts | 245° |
| 2026-05-08 04:37 | 32.52986 | -29.06315 | 32117 ft | 430 kts | 245° |
| 2026-05-08 04:37 | 32.49677 | -29.12236 | 32117 ft | 430 kts | 245° |
| 2026-05-08 04:38 | 32.46365 | -29.18154 | 32127 ft | 430 kts | 245° |
| 2026-05-08 04:38 | 32.43052 | -29.24064 | 32126 ft | 430 kts | 245° |
| 2026-05-08 04:39 | 32.39733 | -29.29980 | 32110 ft | 432 kts | 245° |
| 2026-05-08 04:39 | 32.36401 | -29.35905 | 32121 ft | 432 kts | 245° |
| 2026-05-08 04:40 | 32.33064 | -29.41827 | 32125 ft | 432 kts | 245° |
| 2026-05-08 04:40 | 32.29725 | -29.47747 | 32126 ft | 432 kts | 245° |
| 2026-05-08 04:41 | 32.26409 | -29.53616 | 32135 ft | 432 kts | 245° |
| 2026-05-08 04:41 | 32.23060 | -29.59540 | 32125 ft | 434 kts | 244° |
| 2026-05-08 04:42 | 32.19700 | -29.65466 | 32134 ft | 434 kts | 244° |
| 2026-05-08 04:42 | 32.16336 | -29.71390 | 32140 ft | 434 kts | 244° |
| 2026-05-08 04:43 | 32.12970 | -29.77310 | 32138 ft | 434 kts | 244° |
| 2026-05-08 04:43 | 32.09602 | -29.83223 | 32120 ft | 434 kts | 244° |
| 2026-05-08 04:44 | 32.06224 | -29.89148 | 32138 ft | 435 kts | 244° |
| 2026-05-08 04:44 | 32.02839 | -29.95069 | 32143 ft | 435 kts | 244° |
| 2026-05-08 04:45 | 31.99620 | -30.01087 | 32143 ft | 431 kts | 248° |
| 2026-05-08 04:45 | 31.96827 | -30.07316 | 32148 ft | 429 kts | 250° |
| 2026-05-08 04:46 | 31.94075 | -30.13563 | 32120 ft | 430 kts | 250° |
| 2026-05-08 04:46 | 31.91316 | -30.19823 | 32142 ft | 430 kts | 250° |
| 2026-05-08 04:47 | 31.88552 | -30.26082 | 32152 ft | 430 kts | 250° |
| 2026-05-08 04:47 | 31.85786 | -30.32338 | 32136 ft | 430 kts | 249° |
| 2026-05-08 04:48 | 31.83019 | -30.38590 | 32152 ft | 431 kts | 249° |
| 2026-05-08 04:48 | 31.80245 | -30.44849 | 32148 ft | 431 kts | 249° |
| 2026-05-08 04:49 | 31.77465 | -30.51106 | 32151 ft | 431 kts | 249° |
| 2026-05-08 04:49 | 31.74680 | -30.57361 | 32159 ft | 431 kts | 249° |
| 2026-05-08 04:50 | 31.71894 | -30.63611 | 32163 ft | 431 kts | 249° |
| 2026-05-08 04:50 | 31.69125 | -30.69815 | 32136 ft | 431 kts | 249° |
| 2026-05-08 04:51 | 31.66313 | -30.76106 | 32157 ft | 432 kts | 249° |
| 2026-05-08 04:51 | 31.63513 | -30.82354 | 32162 ft | 432 kts | 249° |
| 2026-05-08 04:52 | 31.60711 | -30.88599 | 32169 ft | 432 kts | 249° |
| 2026-05-08 04:52 | 31.57924 | -30.94797 | 32166 ft | 432 kts | 249° |
| 2026-05-08 04:53 | 31.55116 | -31.01039 | 32164 ft | 432 kts | 248° |
| 2026-05-08 04:53 | 31.52301 | -31.07280 | 32169 ft | 432 kts | 248° |
| 2026-05-08 04:54 | 31.49483 | -31.13516 | 32167 ft | 432 kts | 248° |
| 2026-05-08 04:54 | 31.46663 | -31.19748 | 32173 ft | 432 kts | 248° |
| 2026-05-08 04:55 | 31.43839 | -31.25977 | 32173 ft | 432 kts | 248° |
| 2026-05-08 04:55 | 31.41013 | -31.32203 | 32175 ft | 432 kts | 248° |
| 2026-05-08 04:56 | 31.38184 | -31.38424 | 32175 ft | 432 kts | 248° |
| 2026-05-08 04:56 | 31.35352 | -31.44640 | 32178 ft | 432 kts | 248° |
| 2026-05-08 04:57 | 31.32516 | -31.50856 | 32178 ft | 432 kts | 248° |
| 2026-05-08 04:57 | 31.29678 | -31.57070 | 32171 ft | 433 kts | 248° |
| 2026-05-08 04:58 | 31.26830 | -31.63290 | 32162 ft | 433 kts | 248° |
| 2026-05-08 04:58 | 31.23979 | -31.69507 | 32185 ft | 433 kts | 248° |
| 2026-05-08 04:59 | 31.21123 | -31.75722 | 32187 ft | 433 kts | 248° |
| 2026-05-08 04:59 | 31.18267 | -31.81933 | 32177 ft | 434 kts | 248° |
| 2026-05-08 05:00 | 31.15888 | -31.87096 | 32189 ft | 434 kts | 248° |
| 2026-05-08 05:00 | 31.13021 | -31.93308 | 32193 ft | 434 kts | 248° |
| 2026-05-08 05:01 | 31.10154 | -31.99511 | 32196 ft | 434 kts | 248° |
| 2026-05-08 05:01 | 31.07280 | -32.05718 | 32196 ft | 434 kts | 248° |
| 2026-05-08 05:02 | 31.04404 | -32.11923 | 32185 ft | 435 kts | 248° |
| 2026-05-08 05:02 | 31.01521 | -32.18129 | 32192 ft | 435 kts | 248° |
| 2026-05-08 05:03 | 30.98633 | -32.24335 | 32194 ft | 435 kts | 248° |
| 2026-05-08 05:03 | 30.95743 | -32.30537 | 32197 ft | 435 kts | 248° |
| 2026-05-08 05:04 | 30.92850 | -32.36736 | 32185 ft | 435 kts | 247° |
| 2026-05-08 05:04 | 30.89955 | -32.42931 | 32195 ft | 435 kts | 247° |
| 2026-05-08 05:05 | 30.87054 | -32.49123 | 32197 ft | 435 kts | 247° |
| 2026-05-08 05:05 | 30.84152 | -32.55308 | 32200 ft | 435 kts | 247° |
| 2026-05-08 05:06 | 30.81246 | -32.61495 | 32200 ft | 435 kts | 247° |
| 2026-05-08 05:06 | 30.78339 | -32.67674 | 32196 ft | 435 kts | 247° |
| 2026-05-08 05:07 | 30.75428 | -32.73847 | 32202 ft | 435 kts | 247° |
| 2026-05-08 05:07 | 30.72517 | -32.80013 | 32202 ft | 435 kts | 247° |
| 2026-05-08 05:08 | 30.69603 | -32.86176 | 32203 ft | 434 kts | 247° |
| 2026-05-08 05:08 | 30.66710 | -32.92279 | 32186 ft | 432 kts | 247° |
| 2026-05-08 05:09 | 30.63813 | -32.98387 | 32196 ft | 431 kts | 247° |
| 2026-05-08 05:09 | 30.60917 | -33.04485 | 32201 ft | 431 kts | 247° |
| 2026-05-08 05:10 | 30.56568 | -33.13623 | 32205 ft | 431 kts | 247° |
| 2026-05-08 05:11 | 30.53666 | -33.19712 | 32197 ft | 431 kts | 247° |
| 2026-05-08 05:11 | 30.50759 | -33.25796 | 32210 ft | 431 kts | 247° |
| 2026-05-08 05:12 | 30.47847 | -33.31881 | 32214 ft | 431 kts | 247° |
| 2026-05-08 05:12 | 30.44935 | -33.37957 | 32197 ft | 431 kts | 247° |
| 2026-05-08 05:13 | 30.42019 | -33.44033 | 32197 ft | 431 kts | 246° |
| 2026-05-08 05:13 | 30.39103 | -33.50099 | 32202 ft | 430 kts | 246° |
| 2026-05-08 05:14 | 30.36184 | -33.56161 | 32206 ft | 430 kts | 246° |
| 2026-05-08 05:14 | 30.33263 | -33.62219 | 32208 ft | 430 kts | 246° |
| 2026-05-08 05:15 | 30.30338 | -33.68274 | 32209 ft | 430 kts | 246° |
| 2026-05-08 05:15 | 30.27411 | -33.74328 | 32200 ft | 430 kts | 246° |
| 2026-05-08 05:16 | 30.24483 | -33.80371 | 32206 ft | 430 kts | 246° |
| 2026-05-08 05:16 | 30.21550 | -33.86415 | 32207 ft | 430 kts | 246° |
| 2026-05-08 05:17 | 30.18616 | -33.92451 | 32212 ft | 430 kts | 246° |
| 2026-05-08 05:17 | 30.15680 | -33.98483 | 32208 ft | 430 kts | 246° |
| 2026-05-08 05:18 | 30.12742 | -34.04511 | 32207 ft | 430 kts | 246° |
| 2026-05-08 05:18 | 30.09799 | -34.10540 | 32207 ft | 430 kts | 246° |
| 2026-05-08 05:19 | 30.06854 | -34.16564 | 32207 ft | 430 kts | 246° |
| 2026-05-08 05:19 | 30.03905 | -34.22586 | 32188 ft | 430 kts | 246° |
| 2026-05-08 05:20 | 30.00951 | -34.28613 | 32204 ft | 431 kts | 246° |
| 2026-05-08 05:20 | 29.97991 | -34.34635 | 32210 ft | 431 kts | 246° |
| 2026-05-08 05:21 | 29.95028 | -34.40657 | 32217 ft | 431 kts | 246° |
| 2026-05-08 05:21 | 29.92062 | -34.46676 | 32217 ft | 431 kts | 246° |
| 2026-05-08 05:22 | 29.89096 | -34.52691 | 32211 ft | 431 kts | 245° |
| 2026-05-08 05:22 | 29.86124 | -34.58704 | 32220 ft | 431 kts | 245° |
| 2026-05-08 05:23 | 29.83149 | -34.64713 | 32211 ft | 431 kts | 245° |
| 2026-05-08 05:23 | 29.80192 | -34.70677 | 32214 ft | 431 kts | 245° |
| 2026-05-08 05:24 | 29.77211 | -34.76685 | 32209 ft | 431 kts | 245° |
| 2026-05-08 05:24 | 29.74229 | -34.82683 | 32211 ft | 431 kts | 245° |
| 2026-05-08 05:25 | 29.71244 | -34.88678 | 32205 ft | 431 kts | 245° |
| 2026-05-08 05:25 | 29.68254 | -34.94672 | 32211 ft | 431 kts | 245° |
| 2026-05-08 05:26 | 29.65264 | -35.00660 | 32215 ft | 431 kts | 245° |
| 2026-05-08 05:26 | 29.62271 | -35.06647 | 32215 ft | 431 kts | 245° |
| 2026-05-08 05:27 | 29.59275 | -35.12627 | 32214 ft | 431 kts | 245° |
| 2026-05-08 05:27 | 29.56273 | -35.18608 | 32214 ft | 431 kts | 245° |
| 2026-05-08 05:28 | 29.53271 | -35.24583 | 32214 ft | 431 kts | 245° |
| 2026-05-08 05:28 | 29.50267 | -35.30559 | 32210 ft | 432 kts | 244° |
| 2026-05-08 05:29 | 29.47259 | -35.36527 | 32208 ft | 431 kts | 244° |
| 2026-05-08 05:29 | 29.44248 | -35.42491 | 32210 ft | 431 kts | 244° |
| 2026-05-08 05:30 | 29.41238 | -35.48446 | 32212 ft | 431 kts | 244° |
| 2026-05-08 05:30 | 29.38227 | -35.54400 | 32209 ft | 431 kts | 244° |
| 2026-05-08 05:31 | 29.35211 | -35.60348 | 32210 ft | 431 kts | 244° |
| 2026-05-08 05:31 | 29.32192 | -35.66295 | 32210 ft | 431 kts | 244° |
| 2026-05-08 05:32 | 29.29172 | -35.72235 | 32211 ft | 431 kts | 244° |
| 2026-05-08 05:32 | 29.26150 | -35.78174 | 32208 ft | 431 kts | 244° |
| 2026-05-08 05:33 | 29.23124 | -35.84109 | 32204 ft | 431 kts | 244° |
| 2026-05-08 05:33 | 29.20094 | -35.90041 | 32209 ft | 431 kts | 244° |
| 2026-05-08 05:34 | 29.17083 | -35.95930 | 32206 ft | 431 kts | 244° |
| 2026-05-08 05:34 | 29.14048 | -36.01855 | 32199 ft | 431 kts | 243° |
| 2026-05-08 05:35 | 29.11011 | -36.07780 | 32202 ft | 431 kts | 243° |
| 2026-05-08 05:35 | 29.07971 | -36.13699 | 32205 ft | 431 kts | 243° |
| 2026-05-08 05:36 | 29.04928 | -36.19615 | 32208 ft | 431 kts | 243° |
| 2026-05-08 05:36 | 29.01884 | -36.25524 | 32205 ft | 431 kts | 243° |
| 2026-05-08 05:37 | 28.98838 | -36.31434 | 32200 ft | 431 kts | 243° |
| 2026-05-08 05:37 | 28.95785 | -36.37343 | 32202 ft | 431 kts | 243° |
| 2026-05-08 05:38 | 28.92732 | -36.43244 | 32203 ft | 431 kts | 243° |
| 2026-05-08 05:38 | 28.89674 | -36.49148 | 32194 ft | 431 kts | 243° |
| 2026-05-08 05:39 | 28.86634 | -36.55008 | 32200 ft | 431 kts | 243° |
| 2026-05-08 05:39 | 28.83571 | -36.60905 | 32199 ft | 431 kts | 243° |
| 2026-05-08 05:40 | 28.80506 | -36.66796 | 32203 ft | 431 kts | 243° |
| 2026-05-08 05:40 | 28.77437 | -36.72686 | 32200 ft | 431 kts | 243° |
| 2026-05-08 05:41 | 28.74368 | -36.78574 | 32197 ft | 432 kts | 243° |
| 2026-05-08 05:41 | 28.71292 | -36.84460 | 32199 ft | 432 kts | 242° |
| 2026-05-08 05:42 | 28.68214 | -36.90341 | 32198 ft | 432 kts | 242° |
| 2026-05-08 05:42 | 28.65133 | -36.96221 | 32197 ft | 432 kts | 242° |
| 2026-05-08 05:43 | 28.62050 | -37.02099 | 32192 ft | 432 kts | 242° |
| 2026-05-08 05:43 | 28.58963 | -37.07976 | 32193 ft | 432 kts | 242° |
| 2026-05-08 05:44 | 28.55871 | -37.13850 | 32194 ft | 432 kts | 242° |
| 2026-05-08 05:44 | 28.52777 | -37.19721 | 32194 ft | 432 kts | 242° |
| 2026-05-08 05:45 | 28.49682 | -37.25590 | 32195 ft | 432 kts | 242° |
| 2026-05-08 05:45 | 28.46584 | -37.31455 | 32196 ft | 432 kts | 242° |
| 2026-05-08 05:46 | 28.43480 | -37.37320 | 32196 ft | 433 kts | 242° |
| 2026-05-08 05:46 | 28.40372 | -37.43183 | 32195 ft | 432 kts | 242° |
| 2026-05-08 05:47 | 28.37266 | -37.49039 | 32187 ft | 433 kts | 242° |
| 2026-05-08 05:47 | 28.34174 | -37.54860 | 32190 ft | 433 kts | 241° |
| 2026-05-08 05:48 | 28.31056 | -37.60718 | 32181 ft | 433 kts | 241° |
| 2026-05-08 05:48 | 28.28441 | -37.65629 | 32190 ft | 434 kts | 241° |
| 2026-05-08 05:49 | 28.25312 | -37.71493 | 32191 ft | 434 kts | 241° |
| 2026-05-08 05:49 | 28.22183 | -37.77355 | 32190 ft | 434 kts | 241° |
| 2026-05-08 05:50 | 28.19047 | -37.83215 | 32191 ft | 434 kts | 241° |
| 2026-05-08 05:50 | 28.15910 | -37.89070 | 32193 ft | 434 kts | 241° |
| 2026-05-08 05:51 | 28.12769 | -37.94925 | 32190 ft | 434 kts | 241° |
| 2026-05-08 05:51 | 28.09628 | -38.00777 | 32188 ft | 434 kts | 240° |
| 2026-05-08 05:52 | 28.06483 | -38.06623 | 32181 ft | 434 kts | 240° |
| 2026-05-08 05:52 | 28.03334 | -38.12468 | 32183 ft | 434 kts | 240° |
| 2026-05-08 05:53 | 28.00187 | -38.18303 | 32185 ft | 434 kts | 240° |
| 2026-05-08 05:53 | 27.97035 | -38.24143 | 32181 ft | 434 kts | 240° |
| 2026-05-08 05:54 | 27.93879 | -38.29978 | 32183 ft | 434 kts | 240° |
| 2026-05-08 05:54 | 27.90721 | -38.35807 | 32184 ft | 434 kts | 240° |
| 2026-05-08 05:55 | 27.87579 | -38.41601 | 32184 ft | 434 kts | 240° |
| 2026-05-08 05:55 | 27.84417 | -38.47429 | 32180 ft | 435 kts | 240° |
| 2026-05-08 05:56 | 27.81248 | -38.53253 | 32180 ft | 435 kts | 240° |
| 2026-05-08 05:56 | 27.78076 | -38.59079 | 32180 ft | 435 kts | 240° |
| 2026-05-08 05:57 | 27.74903 | -38.64897 | 32179 ft | 435 kts | 240° |
| 2026-05-08 05:57 | 27.71729 | -38.70714 | 32167 ft | 435 kts | 240° |
| 2026-05-08 05:58 | 27.68546 | -38.76537 | 32179 ft | 436 kts | 239° |
| 2026-05-08 05:58 | 27.65355 | -38.82363 | 32180 ft | 436 kts | 239° |
| 2026-05-08 05:59 | 27.62164 | -38.88183 | 32181 ft | 436 kts | 239° |
| 2026-05-08 05:59 | 27.58970 | -38.94001 | 32178 ft | 436 kts | 239° |
| 2026-05-08 06:00 | 27.55775 | -38.99814 | 32180 ft | 436 kts | 239° |
| 2026-05-08 06:00 | 27.52578 | -39.05623 | 32194 ft | 436 kts | 239° |
| 2026-05-08 06:01 | 27.49380 | -39.11425 | 32180 ft | 436 kts | 239° |
| 2026-05-08 06:01 | 27.46179 | -39.17229 | 32178 ft | 436 kts | 239° |
| 2026-05-08 06:02 | 27.42972 | -39.23030 | 32179 ft | 436 kts | 239° |
| 2026-05-08 06:02 | 27.39764 | -39.28828 | 32180 ft | 436 kts | 239° |
| 2026-05-08 06:03 | 27.36554 | -39.34620 | 32175 ft | 436 kts | 239° |
| 2026-05-08 06:03 | 27.33342 | -39.40412 | 32175 ft | 436 kts | 239° |
| 2026-05-08 06:04 | 27.30125 | -39.46202 | 32175 ft | 436 kts | 239° |
| 2026-05-08 06:04 | 27.26905 | -39.51987 | 32174 ft | 436 kts | 239° |
| 2026-05-08 06:05 | 27.23686 | -39.57767 | 32174 ft | 436 kts | 239° |
| 2026-05-08 06:05 | 27.20463 | -39.63548 | 32176 ft | 436 kts | 239° |
| 2026-05-08 06:06 | 27.17258 | -39.69283 | 32176 ft | 436 kts | 239° |
| 2026-05-08 06:06 | 27.14030 | -39.75054 | 32176 ft | 436 kts | 239° |
| 2026-05-08 06:07 | 27.10799 | -39.80822 | 32180 ft | 437 kts | 238° |
| 2026-05-08 06:07 | 27.07559 | -39.86599 | 32179 ft | 437 kts | 238° |
| 2026-05-08 06:08 | 27.04314 | -39.92373 | 32159 ft | 437 kts | 238° |
| 2026-05-08 06:08 | 27.01190 | -39.98228 | 32172 ft | 437 kts | 242° |
| 2026-05-08 06:09 | 26.98533 | -40.04368 | 32173 ft | 437 kts | 246° |
| 2026-05-08 06:09 | 26.96258 | -40.10695 | 32168 ft | 437 kts | 248° |
| 2026-05-08 06:10 | 26.94002 | -40.17030 | 32163 ft | 437 kts | 248° |
| 2026-05-08 06:10 | 26.91747 | -40.23365 | 32165 ft | 437 kts | 248° |
| 2026-05-08 06:11 | 26.89492 | -40.29699 | 32165 ft | 437 kts | 248° |
| 2026-05-08 06:11 | 26.87232 | -40.36033 | 32172 ft | 437 kts | 248° |
| 2026-05-08 06:12 | 26.84972 | -40.42361 | 32158 ft | 437 kts | 248° |
| 2026-05-08 06:12 | 26.82708 | -40.48690 | 32166 ft | 437 kts | 247° |
| 2026-05-08 06:13 | 26.80443 | -40.55014 | 32163 ft | 437 kts | 247° |
| 2026-05-08 06:13 | 26.78189 | -40.61296 | 32156 ft | 437 kts | 247° |
| 2026-05-08 06:14 | 26.75917 | -40.67616 | 32164 ft | 437 kts | 247° |
| 2026-05-08 06:14 | 26.73642 | -40.73938 | 32169 ft | 437 kts | 247° |
| 2026-05-08 06:15 | 26.71364 | -40.80252 | 32159 ft | 437 kts | 247° |
| 2026-05-08 06:15 | 26.69083 | -40.86568 | 32158 ft | 437 kts | 247° |
| 2026-05-08 06:16 | 26.66799 | -40.92881 | 32153 ft | 437 kts | 247° |
| 2026-05-08 06:16 | 26.64513 | -40.99191 | 32167 ft | 438 kts | 247° |
| 2026-05-08 06:17 | 26.61075 | -41.08659 | 32158 ft | 438 kts | 247° |
| 2026-05-08 06:17 | 26.58780 | -41.14966 | 32170 ft | 438 kts | 247° |
| 2026-05-08 06:18 | 26.56483 | -41.21270 | 32157 ft | 438 kts | 247° |
| 2026-05-08 06:18 | 26.54181 | -41.27576 | 32153 ft | 438 kts | 247° |
| 2026-05-08 06:19 | 26.51878 | -41.33877 | 32166 ft | 438 kts | 247° |
| 2026-05-08 06:19 | 26.49571 | -41.40176 | 32151 ft | 438 kts | 247° |
| 2026-05-08 06:20 | 26.47276 | -41.46434 | 32153 ft | 438 kts | 246° |
| 2026-05-08 06:20 | 26.44963 | -41.52732 | 32158 ft | 438 kts | 246° |
| 2026-05-08 06:21 | 26.42646 | -41.59029 | 32151 ft | 438 kts | 246° |
| 2026-05-08 06:21 | 26.40326 | -41.65323 | 32150 ft | 438 kts | 246° |
| 2026-05-08 06:22 | 26.38001 | -41.71621 | 32149 ft | 438 kts | 246° |
| 2026-05-08 06:22 | 26.35675 | -41.77914 | 32170 ft | 438 kts | 246° |
| 2026-05-08 06:23 | 26.33345 | -41.84209 | 32153 ft | 439 kts | 246° |
| 2026-05-08 06:23 | 26.31011 | -41.90500 | 32151 ft | 439 kts | 246° |
| 2026-05-08 06:24 | 26.28675 | -41.96788 | 32152 ft | 439 kts | 246° |
| 2026-05-08 06:24 | 26.26336 | -42.03076 | 32148 ft | 439 kts | 246° |
| 2026-05-08 06:25 | 26.23991 | -42.09369 | 32148 ft | 439 kts | 246° |
| 2026-05-08 06:25 | 26.21645 | -42.15657 | 32145 ft | 439 kts | 246° |
| 2026-05-08 06:26 | 26.19296 | -42.21940 | 32146 ft | 439 kts | 246° |
| 2026-05-08 06:26 | 26.16942 | -42.28229 | 32145 ft | 439 kts | 246° |
| 2026-05-08 06:27 | 26.14585 | -42.34515 | 32149 ft | 439 kts | 246° |
| 2026-05-08 06:27 | 26.12225 | -42.40799 | 32144 ft | 439 kts | 246° |
| 2026-05-08 06:28 | 26.09863 | -42.47080 | 32143 ft | 440 kts | 246° |
| 2026-05-08 06:28 | 26.07496 | -42.53362 | 32144 ft | 439 kts | 246° |
| 2026-05-08 06:29 | 26.05128 | -42.59638 | 32140 ft | 439 kts | 246° |
| 2026-05-08 06:29 | 26.02757 | -42.65913 | 32142 ft | 439 kts | 246° |
| 2026-05-08 06:30 | 26.00400 | -42.72140 | 32139 ft | 439 kts | 246° |
| 2026-05-08 06:30 | 25.98025 | -42.78407 | 32141 ft | 439 kts | 246° |
| 2026-05-08 06:31 | 25.95647 | -42.84670 | 32143 ft | 439 kts | 246° |
| 2026-05-08 06:31 | 25.93267 | -42.90931 | 32138 ft | 439 kts | 246° |
| 2026-05-08 06:32 | 25.90884 | -42.97189 | 32137 ft | 439 kts | 246° |
| 2026-05-08 06:32 | 25.88499 | -43.03442 | 32139 ft | 439 kts | 246° |
| 2026-05-08 06:33 | 25.86111 | -43.09695 | 32135 ft | 439 kts | 246° |
| 2026-05-08 06:33 | 25.83720 | -43.15944 | 32134 ft | 439 kts | 246° |
| 2026-05-08 06:34 | 25.81328 | -43.22187 | 32135 ft | 439 kts | 246° |
| 2026-05-08 06:34 | 25.78933 | -43.28428 | 32132 ft | 439 kts | 246° |
| 2026-05-08 06:35 | 25.76535 | -43.34669 | 32132 ft | 439 kts | 246° |
| 2026-05-08 06:35 | 25.74135 | -43.40905 | 32133 ft | 439 kts | 246° |
| 2026-05-08 06:36 | 25.71732 | -43.47139 | 32130 ft | 439 kts | 246° |
| 2026-05-08 06:36 | 25.69327 | -43.53368 | 32129 ft | 439 kts | 245° |
| 2026-05-08 06:37 | 25.66919 | -43.59597 | 32126 ft | 439 kts | 245° |
| 2026-05-08 06:37 | 25.64916 | -43.64770 | 32126 ft | 439 kts | 245° |
| 2026-05-08 06:38 | 25.62503 | -43.70995 | 32127 ft | 439 kts | 245° |
| 2026-05-08 06:38 | 25.59694 | -43.78230 | 32127 ft | 439 kts | 245° |
| 2026-05-08 06:39 | 25.57272 | -43.84454 | 32130 ft | 439 kts | 245° |
| 2026-05-08 06:39 | 25.55243 | -43.89664 | 32127 ft | 439 kts | 245° |
| 2026-05-08 06:40 | 25.52817 | -43.95886 | 32128 ft | 439 kts | 245° |
| 2026-05-08 06:40 | 25.50387 | -44.02107 | 32123 ft | 439 kts | 245° |
| 2026-05-08 06:41 | 25.47955 | -44.08324 | 32124 ft | 440 kts | 245° |
| 2026-05-08 06:41 | 25.45520 | -44.14540 | 32124 ft | 440 kts | 245° |
| 2026-05-08 06:42 | 25.43099 | -44.20712 | 32120 ft | 440 kts | 245° |
| 2026-05-08 06:42 | 25.40658 | -44.26925 | 32123 ft | 440 kts | 245° |
| 2026-05-08 06:43 | 25.38215 | -44.33134 | 32121 ft | 440 kts | 245° |
| 2026-05-08 06:43 | 25.35771 | -44.39336 | 32119 ft | 440 kts | 245° |
| 2026-05-08 06:44 | 25.33322 | -44.45540 | 32120 ft | 439 kts | 245° |
| 2026-05-08 06:44 | 25.30873 | -44.51738 | 32117 ft | 439 kts | 245° |
| 2026-05-08 06:45 | 25.28422 | -44.57931 | 32120 ft | 439 kts | 245° |
| 2026-05-08 06:45 | 25.25970 | -44.64118 | 32117 ft | 439 kts | 245° |
| 2026-05-08 06:46 | 25.23514 | -44.70304 | 32114 ft | 439 kts | 245° |
| 2026-05-08 06:46 | 25.21058 | -44.76482 | 32116 ft | 439 kts | 245° |
| 2026-05-08 06:47 | 25.18598 | -44.82663 | 32117 ft | 439 kts | 245° |
| 2026-05-08 06:47 | 25.16139 | -44.88831 | 32113 ft | 438 kts | 245° |
| 2026-05-08 06:48 | 25.13676 | -44.94999 | 32111 ft | 438 kts | 245° |
| 2026-05-08 06:48 | 25.11213 | -45.01159 | 32112 ft | 438 kts | 245° |
| 2026-05-08 06:49 | 25.08746 | -45.07320 | 32114 ft | 438 kts | 245° |
| 2026-05-08 06:49 | 25.06278 | -45.13475 | 32114 ft | 438 kts | 245° |
| 2026-05-08 06:50 | 25.03806 | -45.19632 | 32123 ft | 438 kts | 245° |
| 2026-05-08 06:50 | 25.01336 | -45.25775 | 32118 ft | 438 kts | 245° |
| 2026-05-08 06:51 | 24.98864 | -45.31914 | 32110 ft | 437 kts | 245° |
| 2026-05-08 06:51 | 24.96389 | -45.38050 | 32114 ft | 437 kts | 245° |
| 2026-05-08 06:52 | 24.93914 | -45.44178 | 32111 ft | 437 kts | 245° |
| 2026-05-08 06:52 | 24.91454 | -45.50260 | 32111 ft | 437 kts | 245° |
| 2026-05-08 06:53 | 24.88974 | -45.56384 | 32112 ft | 437 kts | 245° |
| 2026-05-08 06:53 | 24.86494 | -45.62500 | 32117 ft | 436 kts | 245° |
| 2026-05-08 06:54 | 24.83999 | -45.68643 | 32113 ft | 436 kts | 245° |
| 2026-05-08 06:54 | 24.81534 | -45.74706 | 32109 ft | 436 kts | 245° |
| 2026-05-08 06:55 | 24.79048 | -45.80809 | 32117 ft | 436 kts | 245° |
| 2026-05-08 06:55 | 24.76565 | -45.86897 | 32109 ft | 436 kts | 245° |
| 2026-05-08 06:56 | 24.74079 | -45.92985 | 32114 ft | 436 kts | 245° |
| 2026-05-08 06:56 | 24.71591 | -45.99069 | 32100 ft | 436 kts | 245° |
| 2026-05-08 06:57 | 24.69099 | -46.05154 | 32112 ft | 436 kts | 245° |
| 2026-05-08 06:57 | 24.66607 | -46.11231 | 32104 ft | 436 kts | 244° |
| 2026-05-08 06:58 | 24.64111 | -46.17310 | 32114 ft | 436 kts | 244° |
| 2026-05-08 06:58 | 24.61612 | -46.23386 | 32108 ft | 436 kts | 244° |
| 2026-05-08 06:59 | 24.59111 | -46.29460 | 32092 ft | 436 kts | 244° |
| 2026-05-08 06:59 | 24.56607 | -46.35531 | 32104 ft | 435 kts | 244° |
| 2026-05-08 07:00 | 24.54105 | -46.41591 | 32109 ft | 435 kts | 244° |
| 2026-05-08 07:00 | 24.51602 | -46.47646 | 32105 ft | 435 kts | 244° |
| 2026-05-08 07:01 | 24.49097 | -46.53695 | 32103 ft | 435 kts | 244° |
| 2026-05-08 07:01 | 24.46586 | -46.59750 | 32095 ft | 435 kts | 244° |
| 2026-05-08 07:02 | 24.44077 | -46.65795 | 32098 ft | 434 kts | 244° |
| 2026-05-08 07:02 | 24.41566 | -46.71834 | 32099 ft | 434 kts | 244° |
| 2026-05-08 07:03 | 24.39070 | -46.77829 | 32100 ft | 434 kts | 244° |
| 2026-05-08 07:03 | 24.36554 | -46.83865 | 32099 ft | 434 kts | 244° |
| 2026-05-08 07:04 | 24.34036 | -46.89895 | 32087 ft | 434 kts | 244° |
| 2026-05-08 07:04 | 24.31517 | -46.95923 | 32095 ft | 434 kts | 244° |